Terminal Aerodrome Forecast
Issued by NWS

Home | Current Version | Previous Version | Graphics & Text | Print | Product List | Glossary On
Versions: 1 2 3 4 5 6 7 8 9 10 11 12 13 14 15
397
FTUS43 KMPX 211136
TAFRWF
TAF
KRWF 211136Z 2112/2212 34012G19KT P6SM BKN200
     FM220000 01011KT P6SM SCT200
     FM220400 06009KT P6SM SCT250
     FM221000 10008KT P6SM SCT250=

USA.gov is the U.S. government's official web portal to all federal, state and local government web resources and services.